sensor_id;sensor_type;location;lat;lon;timestamp;pressure;altitude;pressure_sealevel;temperature;humidity
48517;BME280;34310;51.904;4.256;2023-05-02T00:00:00;102214.69;;;18.17;60.51
48517;BME280;34310;51.904;4.256;2023-05-02T00:02:28;102215.50;;;18.16;60.65
48517;BME280;34310;51.904;4.256;2023-05-02T00:04:56;102225.97;;;18.16;60.62
48517;BME280;34310;51.904;4.256;2023-05-02T00:07:23;102223.25;;;18.15;60.58
48517;BME280;34310;51.904;4.256;2023-05-02T00:09:52;102228.47;;;18.15;60.42
48517;BME280;34310;51.904;4.256;2023-05-02T00:12:20;102220.53;;;18.13;60.63
48517;BME280;34310;51.904;4.256;2023-05-02T00:14:47;102220.53;;;18.13;60.50
48517;BME280;34310;51.904;4.256;2023-05-02T00:17:18;102211.81;;;18.13;60.57
48517;BME280;34310;51.904;4.256;2023-05-02T00:19:47;102210.00;;;18.12;60.53
48517;BME280;34310;51.904;4.256;2023-05-02T00:22:14;102211.72;;;18.11;60.36
48517;BME280;34310;51.904;4.256;2023-05-02T00:24:41;102209.00;;;18.10;60.60
48517;BME280;34310;51.904;4.256;2023-05-02T00:27:08;102215.13;;;18.10;60.46
48517;BME280;34310;51.904;4.256;2023-05-02T00:29:36;102212.41;;;18.09;60.59
48517;BME280;34310;51.904;4.256;2023-05-02T00:32:04;102225.50;;;18.09;60.68
48517;BME280;34310;51.904;4.256;2023-05-02T00:34:31;102221.06;;;18.08;60.65
48517;BME280;34310;51.904;4.256;2023-05-02T00:36:59;102221.88;;;18.07;60.69
48517;BME280;34310;51.904;4.256;2023-05-02T00:39:26;102221.88;;;18.07;60.39
48517;BME280;34310;51.904;4.256;2023-05-02T00:41:57;102212.22;;;18.06;60.62
48517;BME280;34310;51.904;4.256;2023-05-02T00:44:25;102219.16;;;18.05;60.46
48517;BME280;34310;51.904;4.256;2023-05-02T00:46:56;102221.69;;;18.04;60.55
48517;BME280;34310;51.904;4.256;2023-05-02T00:49:24;102226.03;;;18.03;60.74
48517;BME280;34310;51.904;4.256;2023-05-02T00:51:53;102225.13;;;18.03;60.39
48517;BME280;34310;51.904;4.256;2023-05-02T00:54:20;102219.88;;;18.03;60.62
48517;BME280;34310;51.904;4.256;2023-05-02T00:56:48;102216.38;;;18.02;60.56
48517;BME280;34310;51.904;4.256;2023-05-02T00:59:15;102213.66;;;18.01;60.68
48517;BME280;34310;51.904;4.256;2023-05-02T01:01:59;102221.50;;;18.01;60.64
48517;BME280;34310;51.904;4.256;2023-05-02T01:13:19;102227.44;;;17.98;60.67
48517;BME280;34310;51.904;4.256;2023-05-02T01:15:50;102238.63;;;17.95;60.72
48517;BME280;34310;51.904;4.256;2023-05-02T01:18:23;102236.00;;;17.95;60.61
48517;BME280;34310;51.904;4.256;2023-05-02T01:20:57;102238.63;;;17.95;60.63
48517;BME280;34310;51.904;4.256;2023-05-02T01:26:45;102237.63;;;17.93;60.66
48517;BME280;34310;51.904;4.256;2023-05-02T01:29:16;102242.84;;;17.93;60.69
48517;BME280;34310;51.904;4.256;2023-05-02T01:31:48;102248.75;;;17.91;60.77
48517;BME280;34310;51.904;4.256;2023-05-02T01:34:19;102256.59;;;17.91;60.81
48517;BME280;34310;51.904;4.256;2023-05-02T01:36:49;102255.69;;;17.90;60.76
48517;BME280;34310;51.904;4.256;2023-05-02T01:39:23;102268.75;;;17.90;60.77
48517;BME280;34310;51.904;4.256;2023-05-02T01:41:54;102273.06;;;17.90;60.85
48517;BME280;34310;51.904;4.256;2023-05-02T01:44:24;102271.25;;;17.89;60.79
48517;BME280;34310;51.904;4.256;2023-05-02T01:46:54;102270.34;;;17.88;60.66
48517;BME280;34310;51.904;4.256;2023-05-02T01:49:24;102264.22;;;17.88;60.73
48517;BME280;34310;51.904;4.256;2023-05-02T01:51:52;102267.66;;;17.87;60.77
48517;BME280;34310;51.904;4.256;2023-05-02T01:54:22;102271.97;;;17.86;60.79
48517;BME280;34310;51.904;4.256;2023-05-02T01:56:51;102271.06;;;17.86;60.71
48517;BME280;34310;51.904;4.256;2023-05-02T01:59:20;102282.41;;;17.86;60.82
48517;BME280;34310;51.904;4.256;2023-05-02T02:01:50;102284.13;;;17.86;60.82
48517;BME280;34310;51.904;4.256;2023-05-02T02:04:19;102284.03;;;17.84;60.61
48517;BME280;34310;51.904;4.256;2023-05-02T02:06:52;102283.03;;;17.82;60.71
48517;BME280;34310;51.904;4.256;2023-05-02T02:09:21;102290.06;;;17.83;60.61
48517;BME280;34310;51.904;4.256;2023-05-02T02:11:52;102297.00;;;17.83;60.98
48517;BME280;34310;51.904;4.256;2023-05-02T02:14:35;102304.75;;;17.81;60.77
48517;BME280;34310;51.904;4.256;2023-05-02T02:17:17;102310.88;;;17.82;60.70
48517;BME280;34310;51.904;4.256;2023-05-02T02:19:49;102306.44;;;17.81;60.72
48517;BME280;34310;51.904;4.256;2023-05-02T02:22:18;102309.88;;;17.80;60.67
48517;BME280;34310;51.904;4.256;2023-05-02T02:24:47;102312.47;;;17.80;60.89
48517;BME280;34310;51.904;4.256;2023-05-02T02:27:14;102308.88;;;17.78;60.72
48517;BME280;34310;51.904;4.256;2023-05-02T02:29:42;102313.28;;;17.79;60.72
48517;BME280;34310;51.904;4.256;2023-05-02T02:32:10;102315.00;;;17.78;60.97
48517;BME280;34310;51.904;4.256;2023-05-02T02:34:37;102314.09;;;17.78;60.85
48517;BME280;34310;51.904;4.256;2023-05-02T02:37:18;102312.28;;;17.77;60.74
48517;BME280;34310;51.904;4.256;2023-05-02T02:42:51;102318.31;;;17.76;60.58
48517;BME280;34310;51.904;4.256;2023-05-02T02:48:10;102320.03;;;17.75;60.93
48517;BME280;34310;51.904;4.256;2023-05-02T02:56:25;102330.28;;;17.72;60.68
48517;BME280;34310;51.904;4.256;2023-05-02T03:01:40;102339.81;;;17.72;60.71
48517;BME280;34310;51.904;4.256;2023-05-02T03:04:11;102345.03;;;17.72;60.77
48517;BME280;34310;51.904;4.256;2023-05-02T03:06:39;102350.16;;;17.70;60.88
48517;BME280;34310;51.904;4.256;2023-05-02T03:09:14;102345.75;;;17.69;60.87
48517;BME280;34310;51.904;4.256;2023-05-02T03:11:44;102346.56;;;17.68;60.78
48517;BME280;34310;51.904;4.256;2023-05-02T03:14:12;102351.78;;;17.68;60.66
48517;BME280;34310;51.904;4.256;2023-05-02T03:16:40;102362.22;;;17.68;60.82
48517;BME280;34310;51.904;4.256;2023-05-02T03:19:08;102370.06;;;17.68;60.79
48517;BME280;34310;51.904;4.256;2023-05-02T03:21:35;102373.47;;;17.67;61.00
48517;BME280;34310;51.904;4.256;2023-05-02T03:24:04;102372.69;;;17.68;60.96
48517;BME280;34310;51.904;4.256;2023-05-02T03:26:31;102370.72;;;17.65;60.85
48517;BME280;34310;51.904;4.256;2023-05-02T03:28:59;102381.19;;;17.65;61.04
48517;BME280;34310;51.904;4.256;2023-05-02T03:31:26;102377.66;;;17.65;60.89
48517;BME280;34310;51.904;4.256;2023-05-02T03:33:54;102384.59;;;17.64;60.94
48517;BME280;34310;51.904;4.256;2023-05-02T03:36:21;102390.59;;;17.63;60.85
48517;BME280;34310;51.904;4.256;2023-05-02T03:38:48;102394.91;;;17.63;60.99
48517;BME280;34310;51.904;4.256;2023-05-02T03:41:16;102400.13;;;17.63;60.71
48517;BME280;34310;51.904;4.256;2023-05-02T03:43:43;102385.25;;;17.62;60.79
48517;BME280;34310;51.904;4.256;2023-05-02T03:46:10;102394.91;;;17.63;60.75
48517;BME280;34310;51.904;4.256;2023-05-02T03:48:38;102388.69;;;17.61;60.81
48517;BME280;34310;51.904;4.256;2023-05-02T03:51:05;102404.34;;;17.61;60.90
48517;BME280;34310;51.904;4.256;2023-05-02T03:53:36;102397.31;;;17.60;60.81
48517;BME280;34310;51.904;4.256;2023-05-02T03:56:03;102406.88;;;17.59;60.89
48517;BME280;34310;51.904;4.256;2023-05-02T03:58:31;102410.38;;;17.60;60.98
48517;BME280;34310;51.904;4.256;2023-05-02T04:00:58;102415.50;;;17.58;60.76
48517;BME280;34310;51.904;4.256;2023-05-02T04:03:25;102416.31;;;17.57;60.78
48517;BME280;34310;51.904;4.256;2023-05-02T04:05:56;102417.22;;;17.58;60.85
48517;BME280;34310;51.904;4.256;2023-05-02T04:08:23;102419.72;;;17.56;60.84
48517;BME280;34310;51.904;4.256;2023-05-02T04:10:51;102424.13;;;17.57;60.73
48517;BME280;34310;51.904;4.256;2023-05-02T04:13:19;102423.13;;;17.55;61.01
48517;BME280;34310;51.904;4.256;2023-05-02T04:15:46;102423.94;;;17.54;60.88
48517;BME280;34310;51.904;4.256;2023-05-02T04:18:13;102426.53;;;17.54;60.89
48517;BME280;34310;51.904;4.256;2023-05-02T04:20:42;102430.97;;;17.55;60.98
48517;BME280;34310;51.904;4.256;2023-05-02T04:23:11;102427.34;;;17.53;60.86
48517;BME280;34310;51.904;4.256;2023-05-02T04:25:38;102430.88;;;17.54;60.81
48517;BME280;34310;51.904;4.256;2023-05-02T04:28:05;102439.50;;;17.53;60.74
48517;BME280;34310;51.904;4.256;2023-05-02T04:30:33;102442.13;;;17.53;60.93
48517;BME280;34310;51.904;4.256;2023-05-02T04:33:00;102444.63;;;17.51;60.87
48517;BME280;34310;51.904;4.256;2023-05-02T04:35:28;102448.94;;;17.51;60.78
48517;BME280;34310;51.904;4.256;2023-05-02T04:37:55;102450.66;;;17.50;60.83
48517;BME280;34310;51.904;4.256;2023-05-02T04:40:23;102455.88;;;17.50;60.96
48517;BME280;34310;51.904;4.256;2023-05-02T04:42:50;102449.75;;;17.50;61.05
48517;BME280;34310;51.904;4.256;2023-05-02T04:45:17;102455.78;;;17.49;60.97
48517;BME280;34310;51.904;4.256;2023-05-02T04:47:45;102458.38;;;17.49;60.97
48517;BME280;34310;51.904;4.256;2023-05-02T04:50:12;102467.91;;;17.48;61.04
48517;BME280;34310;51.904;4.256;2023-05-02T04:52:39;102474.03;;;17.49;60.99
48517;BME280;34310;51.904;4.256;2023-05-02T04:55:07;102476.56;;;17.47;60.94
48517;BME280;34310;51.904;4.256;2023-05-02T04:57:34;102475.66;;;17.47;60.84
48517;BME280;34310;51.904;4.256;2023-05-02T05:00:02;102478.25;;;17.47;60.88
48517;BME280;34310;51.904;4.256;2023-05-02T05:02:29;102476.44;;;17.46;60.97
48517;BME280;34310;51.904;4.256;2023-05-02T05:04:57;102479.06;;;17.46;60.87
48517;BME280;34310;51.904;4.256;2023-05-02T05:07:27;102484.28;;;17.46;60.94
48517;BME280;34310;51.904;4.256;2023-05-02T05:09:55;102485.88;;;17.44;60.78
48517;BME280;34310;51.904;4.256;2023-05-02T05:12:22;102494.53;;;17.43;60.96
48517;BME280;34310;51.904;4.256;2023-05-02T05:14:49;102496.34;;;17.44;60.81
48517;BME280;34310;51.904;4.256;2023-05-02T05:17:17;102499.75;;;17.43;60.98
48517;BME280;34310;51.904;4.256;2023-05-02T05:19:44;102504.97;;;17.43;60.83
48517;BME280;34310;51.904;4.256;2023-05-02T05:22:11;102503.16;;;17.42;60.77
48517;BME280;34310;51.904;4.256;2023-05-02T05:24:39;102510.09;;;17.41;60.92
48517;BME280;34310;51.904;4.256;2023-05-02T05:27:06;102510.09;;;17.41;61.05
48517;BME280;34310;51.904;4.256;2023-05-02T05:29:33;102507.38;;;17.40;60.70
48517;BME280;34310;51.904;4.256;2023-05-02T05:32:01;102520.41;;;17.40;60.90
48517;BME280;34310;51.904;4.256;2023-05-02T05:34:28;102516.00;;;17.39;60.88
48517;BME280;34310;51.904;4.256;2023-05-02T05:36:56;102527.34;;;17.39;60.83
48517;BME280;34310;51.904;4.256;2023-05-02T05:39:23;102529.84;;;17.38;60.85
48517;BME280;34310;51.904;4.256;2023-05-02T05:41:51;102535.06;;;17.38;60.78
48517;BME280;34310;51.904;4.256;2023-05-02T05:44:19;102537.69;;;17.38;61.09
48517;BME280;34310;51.904;4.256;2023-05-02T05:46:48;102536.78;;;17.37;60.90
48517;BME280;34310;51.904;4.256;2023-05-02T05:49:16;102534.97;;;17.36;60.70
48517;BME280;34310;51.904;4.256;2023-05-02T05:51:43;102546.22;;;17.35;60.98
48517;BME280;34310;51.904;4.256;2023-05-02T05:54:10;102555.84;;;17.36;60.96
48517;BME280;34310;51.904;4.256;2023-05-02T05:56:38;102560.16;;;17.36;60.81
48517;BME280;34310;51.904;4.256;2023-05-02T05:59:05;102562.78;;;17.36;60.75
48517;BME280;34310;51.904;4.256;2023-05-02T06:01:32;102574.94;;;17.35;60.74
48517;BME280;34310;51.904;4.256;2023-05-02T06:04:01;102574.00;;;17.34;60.81
48517;BME280;34310;51.904;4.256;2023-05-02T06:06:29;102580.91;;;17.34;60.80
48517;BME280;34310;51.904;4.256;2023-05-02T06:08:58;102588.75;;;17.34;60.97
48517;BME280;34310;51.904;4.256;2023-05-02T06:11:26;102590.47;;;17.33;60.84
48517;BME280;34310;51.904;4.256;2023-05-02T06:13:53;102588.63;;;17.32;60.99
48517;BME280;34310;51.904;4.256;2023-05-02T06:16:21;102597.38;;;17.33;60.95
48517;BME280;34310;51.904;4.256;2023-05-02T06:18:49;102595.69;;;17.33;60.92
48517;BME280;34310;51.904;4.256;2023-05-02T06:21:18;102596.47;;;17.32;61.13
48517;BME280;34310;51.904;4.256;2023-05-02T06:23:46;102601.69;;;17.32;60.91
48517;BME280;34310;51.904;4.256;2023-05-02T06:26:13;102608.63;;;17.32;60.86
48517;BME280;34310;51.904;4.256;2023-05-02T06:28:41;102607.72;;;17.31;61.01
48517;BME280;34310;51.904;4.256;2023-05-02T06:31:08;102609.53;;;17.32;60.94
48517;BME280;34310;51.904;4.256;2023-05-02T06:33:36;102619.06;;;17.32;60.97
48517;BME280;34310;51.904;4.256;2023-05-02T06:36:03;102619.06;;;17.32;60.94
48517;BME280;34310;51.904;4.256;2023-05-02T06:38:31;102623.38;;;17.31;60.97
48517;BME280;34310;51.904;4.256;2023-05-02T06:40:59;102628.59;;;17.31;60.91
48517;BME280;34310;51.904;4.256;2023-05-02T06:43:26;102638.13;;;17.31;60.95
48517;BME280;34310;51.904;4.256;2023-05-02T06:45:54;102626.78;;;17.30;60.83
48517;BME280;34310;51.904;4.256;2023-05-02T06:48:25;102637.22;;;17.30;60.82
48517;BME280;34310;51.904;4.256;2023-05-02T06:50:52;102638.03;;;17.29;61.09
48517;BME280;34310;51.904;4.256;2023-05-02T06:53:22;102635.41;;;17.29;60.89
48517;BME280;34310;51.904;4.256;2023-05-02T06:55:50;102640.63;;;17.29;60.94
48517;BME280;34310;51.904;4.256;2023-05-02T06:58:17;102642.44;;;17.30;61.14
48517;BME280;34310;51.904;4.256;2023-05-02T07:00:44;102650.28;;;17.30;61.00
48517;BME280;34310;51.904;4.256;2023-05-02T07:03:12;102645.06;;;17.30;60.90
48517;BME280;34310;51.904;4.256;2023-05-02T07:05:39;102648.47;;;17.29;60.94
48517;BME280;34310;51.904;4.256;2023-05-02T07:08:07;102644.16;;;17.30;60.95
48517;BME280;34310;51.904;4.256;2023-05-02T07:10:35;102652.00;;;17.30;61.02
48517;BME280;34310;51.904;4.256;2023-05-02T07:13:02;102651.09;;;17.29;60.96
48517;BME280;34310;51.904;4.256;2023-05-02T07:15:30;102656.31;;;17.29;60.95
48517;BME280;34310;51.904;4.256;2023-05-02T07:17:57;102658.91;;;17.29;60.89
48517;BME280;34310;51.904;4.256;2023-05-02T07:20:24;102658.00;;;17.29;61.05
48517;BME280;34310;51.904;4.256;2023-05-02T07:22:52;102655.41;;;17.29;61.12
48517;BME280;34310;51.904;4.256;2023-05-02T07:25:19;102664.03;;;17.28;61.05
48517;BME280;34310;51.904;4.256;2023-05-02T07:27:47;102664.94;;;17.28;61.05
48517;BME280;34310;51.904;4.256;2023-05-02T07:30:14;102662.31;;;17.28;60.95
48517;BME280;34310;51.904;4.256;2023-05-02T07:32:41;102670.16;;;17.28;60.89
48517;BME280;34310;51.904;4.256;2023-05-02T07:35:09;102670.16;;;17.28;61.08
48517;BME280;34310;51.904;4.256;2023-05-02T07:37:36;102674.56;;;17.29;61.10
48517;BME280;34310;51.904;4.256;2023-05-02T07:40:04;102693.66;;;17.28;61.00
48517;BME280;34310;51.904;4.256;2023-05-02T07:42:33;102684.91;;;17.28;61.01
48517;BME280;34310;51.904;4.256;2023-05-02T07:45:01;102697.97;;;17.28;61.12
48517;BME280;34310;51.904;4.256;2023-05-02T07:47:28;102702.28;;;17.27;61.05
48517;BME280;34310;51.904;4.256;2023-05-02T07:49:56;102701.47;;;17.28;61.01
48517;BME280;34310;51.904;4.256;2023-05-02T07:52:24;102699.78;;;17.29;61.24
48517;BME280;34310;51.904;4.256;2023-05-02T07:54:52;102705.91;;;17.29;61.03
48517;BME280;34310;51.904;4.256;2023-05-02T07:57:19;102705.78;;;17.28;61.26
48517;BME280;34310;51.904;4.256;2023-05-02T07:59:46;102711.00;;;17.28;60.95
48517;BME280;34310;51.904;4.256;2023-05-02T08:02:14;102718.97;;;17.29;61.07
48517;BME280;34310;51.904;4.256;2023-05-02T08:04:43;102721.56;;;17.29;61.09
48517;BME280;34310;51.904;4.256;2023-05-02T08:07:11;102717.16;;;17.28;61.16
48517;BME280;34310;51.904;4.256;2023-05-02T08:09:38;102724.19;;;17.29;61.12
48517;BME280;34310;51.904;4.256;2023-05-02T08:12:05;102718.06;;;17.29;61.17
48517;BME280;34310;51.904;4.256;2023-05-02T08:14:33;102713.75;;;17.29;61.24
48517;BME280;34310;51.904;4.256;2023-05-02T08:17:00;102707.59;;;17.29;61.21
48517;BME280;34310;51.904;4.256;2023-05-02T08:19:27;102712.84;;;17.29;61.15
48517;BME280;34310;51.904;4.256;2023-05-02T08:21:55;102721.56;;;17.29;61.24
48517;BME280;34310;51.904;4.256;2023-05-02T08:24:22;102726.78;;;17.29;61.39
48517;BME280;34310;51.904;4.256;2023-05-02T08:26:49;102718.16;;;17.30;61.11
48517;BME280;34310;51.904;4.256;2023-05-02T08:29:17;102729.41;;;17.29;61.19
48517;BME280;34310;51.904;4.256;2023-05-02T08:31:44;102739.06;;;17.30;61.31
48517;BME280;34310;51.904;4.256;2023-05-02T08:34:11;102738.16;;;17.30;61.28
48517;BME280;34310;51.904;4.256;2023-05-02T08:36:39;102754.72;;;17.30;61.29
48517;BME280;34310;51.904;4.256;2023-05-02T08:39:06;102748.59;;;17.30;61.28
48517;BME280;34310;51.904;4.256;2023-05-02T08:41:35;102754.72;;;17.30;61.29
48517;BME280;34310;51.904;4.256;2023-05-02T08:44:02;102759.13;;;17.31;61.16
48517;BME280;34310;51.904;4.256;2023-05-02T08:46:34;102763.44;;;17.31;61.22
48517;BME280;34310;51.904;4.256;2023-05-02T08:49:02;102759.94;;;17.30;61.22
48517;BME280;34310;51.904;4.256;2023-05-02T08:51:32;102755.63;;;17.31;61.28
48517;BME280;34310;51.904;4.256;2023-05-02T08:53:59;102765.28;;;17.32;61.20
48517;BME280;34310;51.904;4.256;2023-05-02T08:56:28;102759.13;;;17.31;61.37
48517;BME280;34310;51.904;4.256;2023-05-02T08:58:55;102764.34;;;17.31;61.31
48517;BME280;34310;51.904;4.256;2023-05-02T09:01:23;102776.63;;;17.32;61.42
48517;BME280;34310;51.904;4.256;2023-05-02T09:03:55;102772.19;;;17.31;61.24
48517;BME280;34310;51.904;4.256;2023-05-02T09:06:26;102770.50;;;17.32;61.31
48517;BME280;34310;51.904;4.256;2023-05-02T09:08:59;102777.53;;;17.33;61.22
48517;BME280;34310;51.904;4.256;2023-05-02T09:11:27;102769.69;;;17.33;61.46
48517;BME280;34310;51.904;4.256;2023-05-02T09:13:55;102768.91;;;17.34;61.36
48517;BME280;34310;51.904;4.256;2023-05-02T09:16:25;102770.59;;;17.33;61.44
48517;BME280;34310;51.904;4.256;2023-05-02T09:18:57;102781.03;;;17.33;61.34
48517;BME280;34310;51.904;4.256;2023-05-02T09:21:34;102778.44;;;17.33;61.34
48517;BME280;34310;51.904;4.256;2023-05-02T09:24:15;102785.47;;;17.34;61.53
48517;BME280;34310;51.904;4.256;2023-05-02T09:29:23;102784.56;;;17.34;61.44
48517;BME280;34310;51.904;4.256;2023-05-02T09:31:51;102791.50;;;17.33;61.46
48517;BME280;34310;51.904;4.256;2023-05-02T09:34:23;102794.09;;;17.33;61.51
48517;BME280;34310;51.904;4.256;2023-05-02T09:36:51;102790.69;;;17.34;61.53
48517;BME280;34310;51.904;4.256;2023-05-02T09:39:25;102800.22;;;17.34;61.37
48517;BME280;34310;51.904;4.256;2023-05-02T09:41:55;102796.84;;;17.35;61.52
48517;BME280;34310;51.904;4.256;2023-05-02T09:44:26;102803.75;;;17.34;61.45
48517;BME280;34310;51.904;4.256;2023-05-02T09:46:54;102807.31;;;17.35;61.42
48517;BME280;34310;51.904;4.256;2023-05-02T09:49:58;102808.22;;;17.36;61.37
48517;BME280;34310;51.904;4.256;2023-05-02T09:52:26;102807.41;;;17.37;61.55
48517;BME280;34310;51.904;4.256;2023-05-02T09:54:53;102806.50;;;17.36;61.65
48517;BME280;34310;51.904;4.256;2023-05-02T09:57:38;102810.81;;;17.36;61.37
48517;BME280;34310;51.904;4.256;2023-05-02T10:00:06;102808.22;;;17.36;61.53
48517;BME280;34310;51.904;4.256;2023-05-02T10:02:35;102798.66;;;17.36;61.57
48517;BME280;34310;51.904;4.256;2023-05-02T10:05:08;102802.06;;;17.35;61.47
48517;BME280;34310;51.904;4.256;2023-05-02T10:07:37;102807.41;;;17.37;61.48
48517;BME280;34310;51.904;4.256;2023-05-02T10:10:06;102808.31;;;17.37;61.59
48517;BME280;34310;51.904;4.256;2023-05-02T10:12:34;102808.31;;;17.37;61.57
48517;BME280;34310;51.904;4.256;2023-05-02T10:15:08;102810.94;;;17.37;61.57
48517;BME280;34310;51.904;4.256;2023-05-02T10:17:41;102817.06;;;17.38;61.43
48517;BME280;34310;51.904;4.256;2023-05-02T10:20:10;102808.31;;;17.37;61.44
48517;BME280;34310;51.904;4.256;2023-05-02T10:22:43;102807.53;;;17.38;61.42
48517;BME280;34310;51.904;4.256;2023-05-02T10:25:12;102811.03;;;17.39;61.69
48517;BME280;34310;51.904;4.256;2023-05-02T10:27:40;102802.31;;;17.38;61.49
48517;BME280;34310;51.904;4.256;2023-05-02T10:30:09;102802.41;;;17.40;61.57
48517;BME280;34310;51.904;4.256;2023-05-02T10:32:37;102805.81;;;17.39;61.71
48517;BME280;34310;51.904;4.256;2023-05-02T10:35:06;102810.25;;;17.40;61.57
48517;BME280;34310;51.904;4.256;2023-05-02T10:37:36;102816.38;;;17.40;61.46
48517;BME280;34310;51.904;4.256;2023-05-02T10:40:05;102806.84;;;17.41;61.55
48517;BME280;34310;51.904;4.256;2023-05-02T10:42:43;102813.88;;;17.42;61.68
48517;BME280;34310;51.904;4.256;2023-05-02T10:45:34;102815.59;;;17.41;61.55
48517;BME280;34310;51.904;4.256;2023-05-02T10:48:21;102819.09;;;17.42;61.66
48517;BME280;34310;51.904;4.256;2023-05-02T10:50:59;102823.53;;;17.43;61.53
48517;BME280;34310;51.904;4.256;2023-05-02T10:53:32;102828.75;;;17.43;61.63
48517;BME280;34310;51.904;4.256;2023-05-02T10:56:19;102819.22;;;17.43;61.74
48517;BME280;34310;51.904;4.256;2023-05-02T11:02:01;102821.03;;;17.44;61.57
48517;BME280;34310;51.904;4.256;2023-05-02T11:05:01;102819.31;;;17.45;61.82
48517;BME280;34310;51.904;4.256;2023-05-02T11:07:30;102825.47;;;17.45;61.82
48517;BME280;34310;51.904;4.256;2023-05-02T11:18:04;102836.13;;;17.48;61.72
48517;BME280;34310;51.904;4.256;2023-05-02T11:20:36;102839.66;;;17.49;61.75
48517;BME280;34310;51.904;4.256;2023-05-02T11:25:55;102840.66;;;17.51;61.83
48517;BME280;34310;51.904;4.256;2023-05-02T11:28:41;102832.84;;;17.51;61.67
48517;BME280;34310;51.904;4.256;2023-05-02T11:33:57;102851.22;;;17.52;61.63
48517;BME280;34310;51.904;4.256;2023-05-02T11:38:56;102850.44;;;17.53;61.83
48517;BME280;34310;51.904;4.256;2023-05-02T11:41:38;102847.94;;;17.55;61.51
48517;BME280;34310;51.904;4.256;2023-05-02T11:44:05;102842.72;;;17.55;61.77
48517;BME280;34310;51.904;4.256;2023-05-02T11:46:36;102856.69;;;17.55;61.58
48517;BME280;34310;51.904;4.256;2023-05-02T11:49:04;102860.31;;;17.57;61.62
48517;BME280;34310;51.904;4.256;2023-05-02T11:51:35;102865.53;;;17.57;61.61
48517;BME280;34310;51.904;4.256;2023-05-02T11:54:02;102860.41;;;17.59;61.60
48517;BME280;34310;51.904;4.256;2023-05-02T11:56:30;102870.06;;;17.60;61.80
48517;BME280;34310;51.904;4.256;2023-05-02T11:58:58;102869.28;;;17.61;61.79
48517;BME280;34310;51.904;4.256;2023-05-02T12:01:27;102862.34;;;17.61;61.83
48517;BME280;34310;51.904;4.256;2023-05-02T12:04:05;102878.13;;;17.63;61.60
48517;BME280;34310;51.904;4.256;2023-05-02T12:06:36;102884.28;;;17.63;61.56
48517;BME280;34310;51.904;4.256;2023-05-02T12:09:08;102884.28;;;17.63;61.62
48517;BME280;34310;51.904;4.256;2023-05-02T12:11:36;102881.81;;;17.65;61.72
48517;BME280;34310;51.904;4.256;2023-05-02T12:14:04;102881.00;;;17.66;61.72
48517;BME280;34310;51.904;4.256;2023-05-02T12:16:33;102881.16;;;17.68;61.76
48517;BME280;34310;51.904;4.256;2023-05-02T12:19:00;102881.28;;;17.69;61.63
48517;BME280;34310;51.904;4.256;2023-05-02T12:21:28;102876.03;;;17.69;61.61
48517;BME280;34310;51.904;4.256;2023-05-02T12:23:56;102887.50;;;17.71;61.71
48517;BME280;34310;51.904;4.256;2023-05-02T12:26:25;102897.97;;;17.71;61.70
48517;BME280;34310;51.904;4.256;2023-05-02T12:28:57;102894.56;;;17.72;61.93
48517;BME280;34310;51.904;4.256;2023-05-02T12:31:25;102892.06;;;17.74;61.72
48517;BME280;34310;51.904;4.256;2023-05-02T12:33:55;102893.88;;;17.75;61.74
48517;BME280;34310;51.904;4.256;2023-05-02T12:36:27;102887.84;;;17.76;61.78
48517;BME280;34310;51.904;4.256;2023-05-02T12:38:56;102889.66;;;17.77;61.58
48517;BME280;34310;51.904;4.256;2023-05-02T12:41:36;102897.63;;;17.78;61.73
48517;BME280;34310;51.904;4.256;2023-05-02T12:44:07;102906.38;;;17.79;61.74
48517;BME280;34310;51.904;4.256;2023-05-02T12:46:35;102907.28;;;17.79;61.49
48517;BME280;34310;51.904;4.256;2023-05-02T12:49:09;102905.69;;;17.81;61.63
48517;BME280;34310;51.904;4.256;2023-05-02T12:51:39;102904.88;;;17.82;61.62
48517;BME280;34310;51.904;4.256;2023-05-02T12:54:07;102917.16;;;17.83;61.60
48517;BME280;34310;51.904;4.256;2023-05-02T12:56:41;102916.34;;;17.84;61.63
48517;BME280;34310;51.904;4.256;2023-05-02T12:59:27;102914.66;;;17.85;61.60
48517;BME280;34310;51.904;4.256;2023-05-02T13:01:55;102917.38;;;17.86;61.76
48517;BME280;34310;51.904;4.256;2023-05-02T13:04:36;102921.00;;;17.88;61.71
48517;BME280;34310;51.904;4.256;2023-05-02T13:07:04;102913.16;;;17.88;61.57
48517;BME280;34310;51.904;4.256;2023-05-02T13:09:32;102914.19;;;17.90;61.71
48517;BME280;34310;51.904;4.256;2023-05-02T13:11:59;102917.81;;;17.92;61.86
48517;BME280;34310;51.904;4.256;2023-05-02T13:14:30;102918.75;;;17.93;61.60
48517;BME280;34310;51.904;4.256;2023-05-02T13:16:57;102922.41;;;17.95;61.67
48517;BME280;34310;51.904;4.256;2023-05-02T13:19:25;102925.91;;;17.95;61.72
48517;BME280;34310;51.904;4.256;2023-05-02T13:21:57;102921.59;;;17.96;61.47
48517;BME280;34310;51.904;4.256;2023-05-02T13:24:24;102927.84;;;17.98;61.70
48517;BME280;34310;51.904;4.256;2023-05-02T13:26:51;102922.72;;;18.00;61.64
48517;BME280;34310;51.904;4.256;2023-05-02T13:29:19;102918.41;;;18.00;61.75
48517;BME280;34310;51.904;4.256;2023-05-02T13:31:46;102926.38;;;18.02;61.64
48517;BME280;34310;51.904;4.256;2023-05-02T13:34:13;102923.88;;;18.03;61.70
48517;BME280;34310;51.904;4.256;2023-05-02T13:36:40;102931.81;;;18.05;61.49
48517;BME280;34310;51.904;4.256;2023-05-02T13:39:12;102928.41;;;18.06;61.50
48517;BME280;34310;51.904;4.256;2023-05-02T13:41:40;102936.34;;;18.07;61.61
48517;BME280;34310;51.904;4.256;2023-05-02T13:44:07;102932.94;;;18.08;61.75
48517;BME280;34310;51.904;4.256;2023-05-02T13:46:35;102927.72;;;18.08;61.55
48517;BME280;34310;51.904;4.256;2023-05-02T13:49:04;102928.75;;;18.10;61.68